Elk Mound, Wisconsin
Current Conditions -  °F | °C
As of 10:15 AM on Friday 24 Oct 2014 (Local Time) from KLUM Reporting Station
Overcast Overcast  
Wind Chill: 52°   Ceiling: 400
Heat Index: 52°   Visibility: 7mi
Dew Point: 50°   Wind: 8mph
Humidity: 92%   Direction: 110°ESE
Pressure: 29.95"   Gusts: NA
Location:  44.87°N, 91.69°W
Report Text: KLUM 241515Z AUTO 11007KT 7SM OVC004 11/10 A2995 RMK AO2 T01100098
Loading
Personal Weather Stations






























Interactive Weather Map
Tropical Storm Tracking
New forecast layout! Learn more

10-Day Weather Forecast

Advertisements
Track Severe Weather on mobile